createdAt,value
2023-02-18T00:01:17.896Z,12.90
2023-02-18T00:03:46.470Z,10.10
2023-02-18T00:06:20.493Z,9.50
2023-02-18T00:08:48.690Z,6.30
2023-02-18T00:11:17.406Z,9.10
2023-02-18T00:13:44.682Z,13.70
2023-02-18T00:16:13.021Z,14.10
2023-02-18T00:18:40.759Z,10.40
2023-02-18T00:21:09.286Z,9.10
2023-02-18T00:23:36.918Z,15.20
2023-02-18T00:26:11.273Z,10.40
2023-02-18T00:28:39.319Z,8.90
2023-02-18T00:31:12.379Z,15.40
2023-02-18T00:33:40.671Z,12.80
2023-02-18T00:36:12.087Z,8.60
2023-02-18T00:38:39.505Z,12.20
2023-02-18T00:41:07.134Z,12.90
2023-02-18T00:43:34.403Z,9.40
2023-02-18T00:46:02.370Z,13.40
2023-02-18T00:48:29.662Z,16.40
2023-02-18T00:50:57.259Z,10.90
2023-02-18T00:53:24.817Z,9.20
2023-02-18T00:55:52.624Z,10.50
2023-02-18T00:58:19.780Z,18.20
2023-02-18T01:00:47.021Z,10.50
2023-02-18T01:03:14.764Z,18.70
2023-02-18T01:05:42.930Z,12.80
2023-02-18T01:08:11.199Z,10.60
2023-02-18T01:10:42.357Z,13.10
2023-02-18T01:13:09.657Z,11.80
2023-02-18T01:15:36.934Z,10.90
2023-02-18T01:18:04.958Z,9.80
2023-02-18T01:20:32.205Z,13.50
2023-02-18T01:22:59.534Z,15.80
2023-02-18T01:25:26.809Z,12.90
2023-02-18T01:27:54.215Z,14.30
2023-02-18T01:30:22.435Z,11.20
2023-02-18T01:32:49.887Z,14.00
2023-02-18T01:35:19.667Z,8.50
2023-02-18T01:37:47.662Z,15.80
2023-02-18T01:40:18.936Z,10.00
2023-02-18T01:42:47.563Z,9.70
2023-02-18T01:45:39.127Z,13.30
2023-02-18T01:48:11.706Z,13.50
2023-02-18T01:50:49.960Z,13.70
2023-02-18T01:53:22.243Z,14.70
2023-02-18T01:55:49.862Z,13.40
2023-02-18T01:58:17.431Z,9.00
2023-02-18T02:00:44.728Z,13.50
2023-02-18T02:03:11.999Z,11.90
2023-02-18T02:05:39.207Z,9.60
2023-02-18T02:08:07.049Z,12.60
2023-02-18T02:11:00.380Z,13.80
2023-02-18T02:14:01.976Z,12.10
2023-02-18T02:16:40.398Z,12.00
2023-02-18T02:19:29.411Z,10.10
2023-02-18T02:22:33.256Z,21.30
2023-02-18T02:25:31.151Z,10.30
2023-02-18T02:28:20.127Z,15.90
2023-02-18T02:31:03.242Z,7.80
2023-02-18T02:33:39.425Z,17.80
2023-02-18T02:36:17.757Z,10.80
2023-02-18T02:39:01.544Z,12.00
2023-02-18T02:41:31.551Z,14.20
2023-02-18T02:44:38.331Z,14.50
2023-02-18T02:47:14.733Z,10.40
2023-02-18T02:49:57.614Z,14.90
2023-02-18T02:52:39.054Z,16.10
2023-02-18T02:55:10.251Z,16.10
2023-02-18T02:57:37.441Z,15.30
2023-02-18T03:00:11.092Z,14.00
2023-02-18T03:03:00.099Z,19.70
2023-02-18T03:06:05.799Z,13.40
2023-02-18T03:08:45.147Z,18.00
2023-02-18T03:11:15.687Z,10.90
2023-02-18T03:13:48.746Z,11.50
2023-02-18T03:16:45.450Z,9.30
2023-02-18T03:19:19.259Z,11.90
2023-02-18T03:22:01.527Z,15.50
2023-02-18T03:24:34.657Z,13.10
2023-02-18T03:27:27.059Z,17.60
2023-02-18T03:29:59.382Z,12.40
2023-02-18T03:32:29.486Z,13.80
2023-02-18T03:35:03.371Z,13.10
2023-02-18T03:37:32.934Z,12.30
2023-02-18T03:40:02.217Z,14.90
2023-02-18T03:42:32.514Z,12.60
2023-02-18T03:45:00.062Z,11.40
2023-02-18T03:47:27.654Z,12.90
2023-02-18T03:49:56.436Z,17.30
2023-02-18T03:52:43.123Z,23.20
2023-02-18T03:55:10.855Z,10.90
2023-02-18T03:57:43.229Z,11.70
2023-02-18T04:00:11.961Z,14.60
2023-02-18T04:02:43.327Z,14.40
2023-02-18T04:05:11.877Z,11.40
2023-02-18T04:07:39.854Z,21.80
2023-02-18T04:10:13.836Z,16.30
2023-02-18T04:12:41.641Z,12.90
2023-02-18T04:15:29.794Z,10.10
2023-02-18T04:18:00.106Z,11.40
2023-02-18T04:20:35.157Z,17.70
2023-02-18T04:23:07.938Z,12.30
2023-02-18T04:25:38.205Z,14.70
2023-02-18T04:28:19.537Z,23.90
2023-02-18T04:30:49.270Z,12.90
2023-02-18T04:33:22.193Z,19.70
2023-02-18T04:35:52.993Z,17.40
2023-02-18T04:40:38.248Z,15.20
2023-02-18T04:41:26.894Z,15.20
2023-02-18T04:43:59.894Z,14.60
2023-02-18T04:46:31.907Z,13.10
2023-02-18T04:49:08.189Z,22.60
2023-02-18T04:51:42.685Z,18.30
2023-02-18T04:54:17.841Z,49.10
2023-02-18T04:56:48.637Z,40.20
2023-02-18T04:59:21.784Z,42.60
2023-02-18T05:01:50.932Z,27.90
2023-02-18T05:04:33.684Z,23.40
2023-02-18T05:07:09.011Z,16.30
2023-02-18T05:09:42.354Z,23.10
2023-02-18T05:12:12.235Z,23.50
2023-02-18T05:14:44.924Z,22.70
2023-02-18T05:17:18.173Z,27.30
2023-02-18T05:19:51.485Z,23.10
2023-02-18T05:22:25.979Z,28.60
2023-02-18T05:24:56.368Z,17.30
2023-02-18T05:27:28.752Z,30.60
2023-02-18T05:30:01.893Z,25.30
2023-02-18T05:32:37.501Z,29.90
2023-02-18T05:35:07.695Z,20.80
2023-02-18T05:37:50.790Z,36.30
2023-02-18T05:40:21.167Z,23.80
2023-02-18T05:42:55.318Z,24.30
2023-02-18T05:45:28.274Z,35.90
2023-02-18T05:47:56.933Z,21.00
2023-02-18T05:50:46.943Z,43.30
2023-02-18T05:53:23.601Z,16.80
2023-02-18T05:55:57.856Z,20.20
2023-02-18T05:58:30.585Z,28.40
2023-02-18T06:01:03.187Z,27.00
2023-02-18T06:03:34.001Z,19.30
2023-02-18T06:06:08.813Z,17.30
2023-02-18T06:08:39.153Z,22.30
2023-02-18T06:11:07.812Z,31.90
2023-02-18T06:13:44.769Z,32.90
2023-02-18T06:16:43.828Z,36.30
2023-02-18T06:19:20.136Z,20.70
2023-02-18T06:21:54.216Z,23.30
2023-02-18T06:24:22.082Z,27.60
2023-02-18T06:26:56.150Z,29.30
2023-02-18T06:29:26.211Z,23.30
2023-02-18T06:31:56.550Z,24.50
2023-02-18T06:34:35.156Z,18.50
2023-02-18T06:37:02.654Z,12.30
2023-02-18T06:39:33.280Z,15.80
2023-02-18T06:42:07.326Z,31.40
2023-02-18T06:44:38.286Z,20.80
2023-02-18T06:47:09.716Z,23.30
2023-02-18T06:49:42.351Z,20.70
2023-02-18T06:52:14.968Z,18.60
2023-02-18T06:54:44.808Z,18.60
2023-02-18T06:57:13.599Z,17.00
2023-02-18T06:59:44.004Z,12.90
2023-02-18T07:02:15.711Z,5.90
2023-02-18T07:04:58.079Z,11.80
2023-02-18T07:07:49.520Z,18.50
2023-02-18T07:10:17.391Z,19.60
2023-02-18T07:12:47.683Z,74.00
2023-02-18T07:15:40.157Z,18.60
2023-02-18T07:18:29.791Z,259.90
2023-02-18T07:21:18.771Z,172.60
2023-02-18T07:23:55.798Z,261.70
2023-02-18T07:26:27.490Z,354.90
2023-02-18T07:28:59.168Z,100.20
2023-02-18T07:31:34.131Z,33.10
2023-02-18T07:34:05.724Z,36.80
2023-02-18T07:36:34.335Z,63.80
2023-02-18T07:39:03.034Z,53.60
2023-02-18T07:41:44.245Z,69.60
2023-02-18T07:44:12.812Z,83.00
2023-02-18T07:47:00.127Z,37.90
2023-02-18T07:49:34.856Z,104.40
2023-02-18T07:52:12.874Z,49.00
2023-02-18T07:54:42.980Z,82.30
2023-02-18T07:57:21.064Z,84.80
2023-02-18T08:00:21.750Z,334.20
2023-02-18T08:03:01.903Z,683.10
2023-02-18T08:05:29.869Z,183.90
2023-02-18T08:08:03.815Z,191.40
2023-02-18T08:10:35.585Z,146.60
2023-02-18T08:13:11.942Z,49.70
2023-02-18T08:15:41.901Z,29.40
2023-02-18T08:18:23.896Z,18.70
2023-02-18T08:21:09.811Z,44.50
2023-02-18T08:23:45.779Z,17.10
2023-02-18T08:26:18.315Z,42.90
2023-02-18T08:28:59.592Z,65.00
2023-02-18T08:31:56.245Z,36.20
2023-02-18T08:34:27.118Z,42.70
2023-02-18T08:36:55.486Z,39.60
2023-02-18T08:39:28.437Z,32.40
2023-02-18T08:42:07.071Z,13.80
2023-02-18T08:44:38.403Z,31.40
2023-02-18T08:48:16.061Z,23.00
2023-02-18T08:50:01.307Z,44.00
2023-02-18T08:52:59.747Z,43.60
2023-02-18T08:55:45.200Z,24.50
2023-02-18T08:58:35.750Z,9.90
2023-02-18T09:01:11.482Z,15.10
2023-02-18T09:04:06.340Z,18.90
2023-02-18T09:06:38.745Z,71.80
2023-02-18T09:09:15.583Z,39.70
2023-02-18T09:11:54.022Z,40.90
2023-02-18T09:17:37.558Z,88.10
2023-02-18T09:17:41.129Z,50.50
2023-02-18T09:20:17.219Z,24.80
2023-02-18T09:23:38.826Z,62.50
2023-02-18T09:27:11.981Z,84.30
2023-02-18T09:30:02.116Z,11.50
2023-02-18T09:32:38.499Z,32.00
2023-02-18T09:35:32.889Z,32.10
2023-02-18T09:38:10.844Z,47.20
2023-02-18T09:41:52.833Z,51.80
2023-02-18T09:44:16.235Z,36.50
2023-02-18T09:46:53.506Z,43.40
2023-02-18T09:49:49.844Z,25.60
2023-02-18T09:52:39.056Z,36.40
2023-02-18T09:55:38.263Z,35.00
2023-02-18T09:58:18.023Z,42.40
2023-02-18T10:00:51.718Z,41.30
2023-02-18T10:03:36.625Z,44.80
2023-02-18T10:06:41.508Z,33.50
2023-02-18T10:09:27.857Z,37.40
2023-02-18T10:12:29.520Z,99.60
2023-02-18T10:15:35.718Z,56.80
2023-02-18T10:22:40.393Z,43.90
2023-02-18T10:25:33.362Z,72.30
2023-02-18T10:25:34.427Z,85.50
2023-02-18T10:28:11.335Z,51.50
2023-02-18T10:31:13.052Z,24.70
2023-02-18T10:34:34.397Z,40.90
2023-02-18T10:37:56.518Z,41.40
2023-02-18T10:40:38.409Z,57.50
2023-02-18T10:43:32.334Z,111.80
2023-02-18T10:46:23.144Z,41.50
2023-02-18T10:49:52.441Z,60.80
2023-02-18T10:52:34.401Z,53.20
2023-02-18T10:55:19.247Z,74.10
2023-02-18T10:57:55.743Z,25.00
2023-02-18T11:00:43.137Z,36.80
2023-02-18T11:03:17.370Z,44.70
2023-02-18T11:06:39.600Z,76.20
2023-02-18T11:09:35.135Z,88.10
2023-02-18T11:12:09.379Z,111.50
2023-02-18T11:14:49.511Z,62.80
2023-02-18T11:17:20.744Z,47.80
2023-02-18T11:20:02.307Z,63.90
2023-02-18T11:22:41.959Z,27.20
2023-02-18T11:25:38.896Z,38.60
2023-02-18T11:28:23.872Z,52.60
2023-02-18T11:31:07.624Z,36.60
2023-02-18T11:33:47.416Z,68.10
2023-02-18T11:36:36.909Z,40.60
2023-02-18T11:39:32.242Z,356.60
2023-02-18T11:42:08.919Z,134.10
2023-02-18T11:44:51.945Z,97.70
2023-02-18T11:47:43.686Z,104.00
2023-02-18T11:50:25.682Z,113.50
2023-02-18T11:53:00.662Z,189.20
2023-02-18T11:55:38.615Z,30.70
2023-02-18T11:58:25.510Z,27.50
2023-02-18T12:01:07.938Z,73.20
2023-02-18T12:03:48.494Z,123.90
2023-02-18T12:06:33.910Z,112.10
2023-02-18T12:09:22.533Z,72.00
2023-02-18T12:12:37.523Z,328.80
2023-02-18T12:15:25.258Z,139.70
2023-02-18T12:18:17.793Z,346.40
2023-02-18T12:21:23.951Z,296.70
2023-02-18T12:24:12.814Z,242.20
2023-02-18T12:27:37.931Z,118.30
2023-02-18T12:30:33.204Z,78.10
2023-02-18T12:34:09.207Z,158.30
2023-02-18T12:37:09.769Z,45.20
2023-02-18T12:40:54.682Z,121.50
2023-02-18T12:43:40.939Z,76.20
2023-02-18T12:47:15.031Z,26.50
2023-02-18T12:50:05.608Z,19.40
2023-02-18T12:52:53.361Z,40.40
2023-02-18T12:55:59.017Z,19.50
2023-02-18T12:58:56.002Z,25.10
2023-02-18T13:01:59.178Z,35.20
2023-02-18T13:05:00.382Z,53.20
2023-02-18T13:08:23.288Z,83.30
2023-02-18T13:11:15.042Z,52.80
2023-02-18T13:14:04.708Z,81.90
2023-02-18T13:17:00.813Z,76.90
2023-02-18T13:20:06.488Z,28.90
2023-02-18T13:22:58.706Z,22.00
2023-02-18T13:25:56.802Z,18.30
2023-02-18T13:28:56.060Z,216.00
2023-02-18T13:32:12.591Z,48.50
2023-02-18T13:35:29.591Z,41.60
2023-02-18T13:38:21.533Z,9.20
2023-02-18T13:41:03.725Z,6.30
2023-02-18T13:43:40.124Z,4.00
2023-02-18T13:46:22.545Z,7.70
2023-02-18T13:48:55.777Z,1.20
2023-02-18T13:51:51.030Z,2.50
2023-02-18T13:54:57.782Z,1.80
2023-02-18T13:58:00.910Z,8.50
2023-02-18T14:00:50.148Z,3.70
2023-02-18T14:03:52.377Z,4.00
2023-02-18T14:06:39.892Z,9.40
2023-02-18T14:09:36.118Z,8.60
2023-02-18T14:12:31.518Z,2.90
2023-02-18T14:14:59.384Z,1.00
2023-02-18T14:17:32.221Z,2.70
2023-02-18T14:20:02.499Z,3.10
2023-02-18T14:22:34.664Z,3.80
2023-02-18T14:25:16.997Z,1.70
2023-02-18T14:27:45.445Z,1.70
2023-02-18T14:30:26.020Z,3.30
2023-02-18T14:32:57.473Z,2.80
2023-02-18T14:35:54.108Z,2.90
2023-02-18T14:38:47.172Z,1.30
2023-02-18T14:42:02.240Z,12.00
2023-02-18T14:44:33.327Z,12.60
2023-02-18T14:47:18.575Z,15.30
2023-02-18T14:49:54.206Z,8.00
2023-02-18T14:52:39.717Z,3.30
2023-02-18T14:55:15.505Z,5.10
2023-02-18T14:57:48.603Z,3.20
2023-02-18T15:00:19.135Z,1.80
2023-02-18T15:02:53.379Z,1.30
2023-02-18T15:05:26.566Z,1.70
2023-02-18T15:08:11.015Z,1.30
2023-02-18T15:10:41.437Z,2.00
2023-02-18T15:13:17.187Z,4.80
2023-02-18T15:15:47.720Z,4.10
2023-02-18T15:18:37.313Z,10.90
2023-02-18T15:21:15.978Z,7.50
2023-02-18T15:23:43.298Z,5.80
2023-02-18T15:26:17.376Z,61.50
2023-02-18T15:29:02.648Z,48.80
2023-02-18T15:31:36.364Z,11.70
2023-02-18T15:34:09.304Z,13.50
2023-02-18T15:36:36.650Z,6.30
2023-02-18T15:39:05.216Z,5.20
2023-02-18T15:41:32.635Z,4.60
2023-02-18T15:44:06.247Z,6.30
2023-02-18T15:46:33.911Z,4.10
2023-02-18T15:49:01.722Z,3.50
2023-02-18T15:51:31.921Z,2.90
2023-02-18T15:54:02.524Z,1.50
2023-02-18T15:56:33.198Z,2.80
2023-02-18T15:59:21.558Z,2.20
2023-02-18T16:01:54.871Z,3.40
2023-02-18T16:04:24.935Z,1.40
2023-02-18T16:06:56.536Z,4.50
2023-02-18T16:09:30.882Z,3.80
2023-02-18T16:12:02.357Z,2.70
2023-02-18T16:14:32.071Z,1.10
2023-02-18T16:17:07.646Z,1.80
2023-02-18T16:20:04.967Z,1.40
2023-02-18T16:22:36.736Z,1.40
2023-02-18T16:25:12.879Z,1.40
2023-02-18T16:27:51.717Z,0.50
2023-02-18T16:30:25.369Z,0.70
2023-02-18T16:32:52.722Z,1.60
2023-02-18T16:35:20.420Z,1.70
2023-02-18T16:37:50.348Z,1.80
2023-02-18T16:40:25.222Z,2.40
2023-02-18T16:42:53.895Z,2.90
2023-02-18T16:45:36.911Z,4.20
2023-02-18T16:48:05.178Z,6.50
2023-02-18T16:50:34.081Z,4.90
2023-02-18T16:53:01.400Z,3.20
2023-02-18T16:55:30.824Z,3.20
2023-02-18T16:57:58.816Z,2.30
2023-02-18T17:00:26.149Z,6.40
2023-02-18T17:02:56.216Z,7.50
2023-02-18T17:05:27.344Z,3.00
2023-02-18T17:07:55.834Z,1.80
2023-02-18T17:10:23.111Z,1.90
2023-02-18T17:12:50.372Z,1.10
2023-02-18T17:15:23.816Z,3.40
2023-02-18T17:17:51.094Z,8.40
2023-02-18T17:20:21.979Z,6.30
2023-02-18T17:22:49.774Z,7.70
2023-02-18T17:25:32.776Z,4.90
2023-02-18T17:28:03.991Z,3.70
2023-02-18T17:30:35.247Z,4.30
2023-02-18T17:33:04.341Z,4.20
2023-02-18T17:35:33.276Z,6.30
2023-02-18T17:38:01.193Z,4.00
2023-02-18T17:40:29.280Z,9.80
2023-02-18T17:42:56.984Z,13.90
2023-02-18T17:45:36.173Z,4.50
2023-02-18T17:48:04.071Z,3.50
2023-02-18T17:50:32.395Z,3.40
2023-02-18T17:52:59.806Z,9.70
2023-02-18T17:55:35.768Z,7.50
2023-02-18T17:58:03.604Z,8.10
2023-02-18T18:00:34.424Z,8.30
2023-02-18T18:03:02.315Z,8.10
2023-02-18T18:05:35.180Z,17.40
2023-02-18T18:08:04.421Z,6.80
2023-02-18T18:10:35.054Z,16.00
2023-02-18T18:13:13.245Z,16.10
2023-02-18T18:15:42.990Z,29.00
2023-02-18T18:18:11.832Z,16.30
2023-02-18T18:20:40.027Z,25.00
2023-02-18T18:23:08.116Z,41.30
2023-02-18T18:25:41.063Z,24.50
2023-02-18T18:28:09.262Z,67.90
2023-02-18T18:30:43.245Z,72.90
2023-02-18T18:33:22.803Z,66.10
2023-02-18T18:35:52.605Z,63.20
2023-02-18T18:38:21.189Z,67.10
2023-02-18T18:40:49.320Z,61.90
2023-02-18T18:43:31.370Z,85.60
2023-02-18T18:46:00.463Z,70.60
2023-02-18T18:48:27.974Z,177.70
2023-02-18T18:50:55.272Z,782.30
2023-02-18T18:53:24.546Z,633.50
2023-02-18T18:55:54.182Z,351.80
2023-02-18T18:58:24.428Z,70.80
2023-02-18T19:00:54.654Z,38.30
2023-02-18T19:03:24.162Z,25.90
2023-02-18T19:05:52.132Z,36.00
2023-02-18T19:08:20.554Z,37.70
2023-02-18T19:10:56.037Z,29.60
2023-02-18T19:13:28.956Z,50.40
2023-02-18T19:16:19.369Z,32.50
2023-02-18T19:18:47.674Z,47.40
2023-02-18T19:21:15.862Z,14.90
2023-02-18T19:23:43.286Z,28.90
2023-02-18T19:26:10.884Z,46.40
2023-02-18T19:28:38.257Z,43.10
2023-02-18T19:31:10.598Z,9.60
2023-02-18T19:33:40.767Z,27.90
2023-02-18T19:36:11.370Z,22.60
2023-02-18T19:38:38.988Z,34.90
2023-02-18T19:41:08.867Z,22.40
2023-02-18T19:43:36.342Z,24.30
2023-02-18T19:46:09.553Z,44.40
2023-02-18T19:48:37.097Z,18.10
2023-02-18T19:51:05.229Z,9.70
2023-02-18T19:53:32.625Z,16.10
2023-02-18T19:56:02.571Z,47.60
2023-02-18T19:58:30.776Z,100.40
2023-02-18T20:00:57.996Z,89.90
2023-02-18T20:03:25.483Z,113.60
2023-02-18T20:05:53.115Z,148.60
2023-02-18T20:08:20.365Z,116.00
2023-02-18T20:10:56.639Z,61.00
2023-02-18T20:13:23.928Z,47.00
2023-02-18T20:15:51.189Z,64.90
2023-02-18T20:18:18.560Z,112.20
2023-02-18T20:20:50.075Z,70.40
2023-02-18T20:23:17.493Z,34.70
2023-02-18T20:25:47.716Z,31.10
2023-02-18T20:28:15.535Z,110.90
2023-02-18T20:30:42.950Z,58.00
2023-02-18T20:33:11.166Z,40.70
2023-02-18T20:35:39.058Z,15.40
2023-02-18T20:38:06.366Z,30.40
2023-02-18T20:40:33.805Z,62.20
2023-02-18T20:43:01.087Z,49.20
2023-02-18T20:45:28.777Z,41.70
2023-02-18T20:47:58.995Z,34.10
2023-02-18T20:50:26.309Z,18.40
2023-02-18T20:52:53.565Z,9.00
2023-02-18T20:55:20.844Z,11.10
2023-02-18T20:57:48.320Z,7.50
2023-02-18T21:00:16.207Z,7.80
2023-02-18T21:02:43.523Z,32.10
2023-02-18T21:05:10.866Z,26.00
2023-02-18T21:07:38.195Z,56.30
2023-02-18T21:10:06.756Z,40.60
2023-02-18T21:12:33.963Z,36.80
2023-02-18T21:15:01.439Z,62.50
2023-02-18T21:17:28.807Z,72.20
2023-02-18T21:19:56.025Z,58.10
2023-02-18T21:22:23.595Z,59.50
2023-02-18T21:24:51.770Z,69.80
2023-02-18T21:27:18.951Z,78.40
2023-02-18T21:29:46.197Z,55.40
2023-02-18T21:32:13.905Z,45.30
2023-02-18T21:34:41.620Z,53.90
2023-02-18T21:37:09.218Z,37.80
2023-02-18T21:39:36.419Z,35.20
2023-02-18T21:42:04.805Z,26.70
2023-02-18T21:44:41.891Z,29.10
2023-02-18T21:47:10.246Z,31.60
2023-02-18T21:49:37.405Z,57.50
2023-02-18T21:52:11.355Z,79.60
2023-02-18T21:54:46.431Z,497.40
2023-02-18T21:57:15.119Z,211.10
2023-02-18T21:59:42.744Z,73.70
2023-02-18T22:02:17.590Z,83.80
2023-02-18T22:04:45.077Z,146.60
2023-02-18T22:07:13.029Z,136.10
2023-02-18T22:09:40.480Z,94.40
2023-02-18T22:12:08.133Z,70.30
2023-02-18T22:14:35.351Z,68.10
2023-02-18T22:17:02.577Z,52.90
2023-02-18T22:19:29.896Z,38.20
2023-02-18T22:21:57.701Z,44.00
2023-02-18T22:24:25.276Z,52.70
2023-02-18T22:26:52.496Z,41.40
2023-02-18T22:29:20.802Z,35.30
2023-02-18T22:31:49.824Z,25.80
2023-02-18T22:34:17.624Z,45.20
2023-02-18T22:36:45.404Z,53.30
2023-02-18T22:39:13.800Z,31.80
2023-02-18T22:41:42.419Z,24.00
2023-02-18T22:44:13.009Z,23.70
2023-02-18T22:46:40.477Z,24.50
2023-02-18T22:49:08.489Z,24.60
2023-02-18T22:51:38.734Z,27.90
2023-02-18T22:54:08.619Z,22.80
2023-02-18T22:56:35.991Z,31.20
2023-02-18T22:59:03.250Z,32.80
2023-02-18T23:01:34.489Z,41.40
2023-02-18T23:04:10.189Z,53.80
2023-02-18T23:06:39.239Z,34.70
2023-02-18T23:09:08.139Z,40.40
2023-02-18T23:11:35.937Z,36.50
2023-02-18T23:14:18.225Z,30.00
2023-02-18T23:17:15.304Z,44.90
2023-02-18T23:19:45.760Z,40.60
2023-02-18T23:22:15.709Z,47.80
2023-02-18T23:24:44.587Z,45.50
2023-02-18T23:27:13.823Z,27.70
2023-02-18T23:29:41.588Z,34.20
2023-02-18T23:32:09.438Z,90.10
2023-02-18T23:34:38.948Z,35.00
2023-02-18T23:37:06.619Z,37.40
2023-02-18T23:39:34.206Z,36.50
2023-02-18T23:42:01.400Z,37.00
2023-02-18T23:44:29.108Z,32.00
2023-02-18T23:46:56.605Z,43.00
2023-02-18T23:49:26.505Z,25.20
2023-02-18T23:51:56.261Z,35.70
2023-02-18T23:54:23.986Z,31.10
2023-02-18T23:56:51.306Z,34.00
2023-02-18T23:59:18.719Z,23.90
